createdAt,value
2023-05-10T00:02:14.256Z,101424.78
2023-05-10T00:04:42.576Z,101430.25
2023-05-10T00:07:11.345Z,101424.91
2023-05-10T00:09:39.802Z,101417.78
2023-05-10T00:12:08.194Z,101420.31
2023-05-10T00:14:36.557Z,101420.41
2023-05-10T00:17:06.721Z,101412.50
2023-05-10T00:19:35.327Z,101408.25
2023-05-10T00:22:11.611Z,101416.13
2023-05-10T00:24:39.972Z,101414.31
2023-05-10T00:27:08.523Z,101416.34
2023-05-10T00:29:37.327Z,101418.97
2023-05-10T00:32:07.690Z,101414.50
2023-05-10T00:34:36.074Z,101411.03
2023-05-10T00:37:07.253Z,101411.09
2023-05-10T00:39:35.467Z,101405.72
2023-05-10T00:42:03.828Z,101408.19
2023-05-10T00:44:37.400Z,101396.88
2023-05-10T00:47:07.858Z,101405.69
2023-05-10T00:49:37.182Z,101398.44
2023-05-10T00:52:06.314Z,101405.72
2023-05-10T00:54:34.904Z,101392.53
2023-05-10T00:57:03.136Z,101397.03
2023-05-10T00:59:34.711Z,101402.34
2023-05-10T01:02:03.972Z,101404.13
2023-05-10T01:04:34.114Z,101400.38
2023-05-10T01:07:02.553Z,101393.34
2023-05-10T01:09:31.025Z,101381.91
2023-05-10T01:12:08.737Z,101393.31
2023-05-10T01:14:39.577Z,101395.28
2023-05-10T01:17:08.524Z,101393.53
2023-05-10T01:19:39.587Z,101389.09
2023-05-10T01:22:22.187Z,101388.50
2023-05-10T01:25:30.595Z,101389.28
2023-05-10T01:28:18.028Z,101365.72
2023-05-10T01:31:20.822Z,101389.50
2023-05-10T01:33:57.121Z,101383.25
2023-05-10T01:36:33.373Z,101385.13
2023-05-10T01:39:06.062Z,101374.41
2023-05-10T01:41:43.436Z,101369.13
2023-05-10T01:44:20.884Z,101376.22
2023-05-10T01:46:55.779Z,101374.59
2023-05-10T01:49:29.867Z,101362.25
2023-05-10T01:52:11.879Z,101356.97
2023-05-10T01:54:43.932Z,101374.50
2023-05-10T01:57:17.819Z,101372.84
2023-05-10T01:59:53.175Z,101372.06
2023-05-10T02:02:23.610Z,101365.09
2023-05-10T02:04:55.693Z,101369.44
2023-05-10T02:07:25.580Z,101366.00
2023-05-10T02:09:54.714Z,101360.72
2023-05-10T02:12:25.380Z,101367.66
2023-05-10T02:14:56.002Z,101364.06
2023-05-10T02:17:27.078Z,101365.81
2023-05-10T02:19:58.741Z,101364.19
2023-05-10T02:22:29.132Z,101367.75
2023-05-10T02:24:59.905Z,101363.41
2023-05-10T02:27:29.956Z,101351.97
2023-05-10T02:30:00.443Z,101357.09
2023-05-10T02:32:29.972Z,101359.75
2023-05-10T02:35:02.481Z,101358.91
2023-05-10T02:37:31.413Z,101347.47
2023-05-10T02:40:00.891Z,101350.22
2023-05-10T02:42:31.027Z,101350.19
2023-05-10T02:45:04.520Z,101329.13
2023-05-10T02:47:32.811Z,101344.06
2023-05-10T02:50:08.460Z,101350.13
2023-05-10T02:52:45.716Z,101337.75
2023-05-10T02:55:17.147Z,101345.72
2023-05-10T02:58:02.367Z,101348.34
2023-05-10T03:00:30.928Z,101348.34
2023-05-10T03:02:59.849Z,101344.00
2023-05-10T03:05:29.972Z,101337.84
2023-05-10T03:07:58.606Z,101351.91
2023-05-10T03:10:32.097Z,101336.06
2023-05-10T03:13:13.594Z,101341.22
2023-05-10T03:15:50.025Z,101348.25
2023-05-10T03:18:23.792Z,101330.91
2023-05-10T03:21:00.076Z,101345.69
2023-05-10T03:23:32.272Z,101348.34
2023-05-10T03:26:02.096Z,101344.88
2023-05-10T03:28:34.176Z,101324.75
2023-05-10T03:31:03.005Z,101322.19
2023-05-10T03:33:32.042Z,101340.50
2023-05-10T03:36:03.431Z,101335.31
2023-05-10T03:38:34.763Z,101337.69
2023-05-10T03:41:02.951Z,101348.16
2023-05-10T03:43:31.085Z,101342.94
2023-05-10T03:45:59.548Z,101346.59
2023-05-10T03:48:27.833Z,101333.34
2023-05-10T03:50:55.979Z,101341.34
2023-05-10T03:53:28.987Z,101322.91
2023-05-10T03:55:57.409Z,101323.88
2023-05-10T03:58:25.605Z,101334.19
2023-05-10T04:00:53.962Z,101337.66
2023-05-10T04:03:23.021Z,101332.38
2023-05-10T04:05:51.526Z,101339.41
2023-05-10T04:08:22.832Z,101335.09
2023-05-10T04:10:52.609Z,101337.53
2023-05-10T04:13:21.120Z,101347.38
2023-05-10T04:15:49.644Z,101346.47
2023-05-10T04:18:18.657Z,101346.44
2023-05-10T04:20:46.905Z,101339.34
2023-05-10T04:23:16.353Z,101332.34
2023-05-10T04:25:44.668Z,101334.03
2023-05-10T04:28:14.272Z,101341.06
2023-05-10T04:30:42.837Z,101326.00
2023-05-10T04:33:11.341Z,101337.31
2023-05-10T04:35:41.164Z,101338.97
2023-05-10T04:38:09.533Z,101330.06
2023-05-10T04:40:38.040Z,101336.22
2023-05-10T04:43:06.268Z,101323.66
2023-05-10T04:45:35.990Z,101329.84
2023-05-10T04:48:04.255Z,101286.19
2023-05-10T04:50:33.036Z,101308.78
2023-05-10T04:53:03.152Z,101316.88
2023-05-10T04:55:31.718Z,101319.53
2023-05-10T04:58:00.665Z,101329.81
2023-05-10T05:00:29.582Z,101313.97
2023-05-10T05:02:59.863Z,101311.44
2023-05-10T05:05:28.493Z,101330.63
2023-05-10T05:07:56.813Z,101322.84
2023-05-10T05:10:25.186Z,101323.75
2023-05-10T05:12:56.640Z,101320.72
2023-05-10T05:15:24.852Z,101320.53
2023-05-10T05:17:53.215Z,101322.22
2023-05-10T05:20:23.511Z,101307.34
2023-05-10T05:22:52.098Z,101318.81
2023-05-10T05:25:20.396Z,101321.25
2023-05-10T05:27:48.488Z,101324.56
2023-05-10T05:30:17.155Z,101323.88
2023-05-10T05:32:45.869Z,101328.97
2023-05-10T05:35:14.375Z,101324.41
2023-05-10T05:37:44.291Z,101335.69
2023-05-10T05:40:16.161Z,101323.19
2023-05-10T05:42:46.858Z,101335.34
2023-05-10T05:45:15.915Z,101336.34
2023-05-10T05:47:44.748Z,101296.00
2023-05-10T05:50:14.020Z,101337.16
2023-05-10T05:52:43.929Z,101322.91
2023-05-10T05:55:12.308Z,101321.72
2023-05-10T05:57:40.784Z,101334.81
2023-05-10T06:00:10.183Z,101329.59
2023-05-10T06:02:38.469Z,101302.34
2023-05-10T06:05:08.226Z,101333.81
2023-05-10T06:07:36.791Z,101334.59
2023-05-10T06:10:07.871Z,101331.06
2023-05-10T06:12:38.736Z,101329.19
2023-05-10T06:15:10.805Z,101336.22
2023-05-10T06:17:39.982Z,101318.41
2023-05-10T06:20:09.887Z,101250.16
2023-05-10T06:22:38.500Z,101318.41
2023-05-10T06:25:09.614Z,101306.97
2023-05-10T06:27:39.931Z,101332.88
2023-05-10T06:30:13.265Z,101326.50
2023-05-10T06:32:42.191Z,101326.56
2023-05-10T06:35:11.330Z,101322.78
2023-05-10T06:37:39.682Z,101325.34
2023-05-10T06:40:11.250Z,101323.63
2023-05-10T06:42:42.384Z,101325.97
2023-05-10T06:45:11.832Z,101317.97
2023-05-10T06:47:40.286Z,101293.97
2023-05-10T06:50:09.912Z,101319.84
2023-05-10T06:52:39.368Z,101324.91
2023-05-10T06:55:11.003Z,101323.13
2023-05-10T06:57:39.367Z,101328.53
2023-05-10T07:00:10.831Z,101323.19
2023-05-10T07:02:39.504Z,101311.03
2023-05-10T07:05:10.584Z,101328.56
2023-05-10T07:07:38.698Z,101318.06
2023-05-10T07:10:08.583Z,101312.81
2023-05-10T07:12:42.253Z,101302.81
2023-05-10T07:15:11.837Z,101288.59
2023-05-10T07:17:41.851Z,101314.53
2023-05-10T07:20:15.601Z,101316.09
2023-05-10T07:22:43.805Z,101309.72
2023-05-10T07:25:12.835Z,101310.56
2023-05-10T07:27:43.165Z,101305.34
2023-05-10T07:30:15.078Z,101303.31
2023-05-10T07:32:43.948Z,101306.56
2023-05-10T07:35:15.310Z,101327.63
2023-05-10T07:37:43.641Z,101291.00
2023-05-10T07:40:14.907Z,101297.69
2023-05-10T07:42:47.417Z,101301.59
2023-05-10T07:45:16.013Z,101301.59
2023-05-10T07:47:44.415Z,101269.44
2023-05-10T07:50:13.590Z,101295.75
2023-05-10T07:52:42.237Z,101299.38
2023-05-10T07:55:11.786Z,101290.34
2023-05-10T07:57:41.352Z,101293.41
2023-05-10T08:00:15.508Z,101272.75
2023-05-10T08:02:44.545Z,101280.22
2023-05-10T08:05:16.084Z,101289.94
2023-05-10T08:07:44.902Z,101285.69
2023-05-10T08:10:13.399Z,101288.75
2023-05-10T08:12:42.281Z,101286.03
2023-05-10T08:15:13.104Z,101285.75
2023-05-10T08:17:41.262Z,101282.56
2023-05-10T08:20:10.332Z,101278.72
2023-05-10T08:22:38.580Z,101264.44
2023-05-10T08:25:07.771Z,101266.75
2023-05-10T08:27:36.028Z,101277.34
2023-05-10T08:30:06.682Z,101281.00
2023-05-10T08:32:39.363Z,101286.63
2023-05-10T08:35:08.071Z,101290.22
2023-05-10T08:37:38.917Z,101275.00
2023-05-10T08:40:08.544Z,101275.16
2023-05-10T08:42:41.665Z,101273.28
2023-05-10T08:45:11.859Z,101271.53
2023-05-10T08:47:41.970Z,101278.91
2023-05-10T08:50:11.908Z,101276.47
2023-05-10T08:52:42.660Z,101283.88
2023-05-10T08:55:11.126Z,101291.00
2023-05-10T08:57:39.526Z,101274.56
2023-05-10T09:00:12.452Z,101293.78
2023-05-10T09:02:42.851Z,101295.59
2023-05-10T09:05:11.749Z,101279.38
2023-05-10T09:07:40.771Z,101305.41
2023-05-10T09:10:11.112Z,101292.44
2023-05-10T09:12:39.718Z,101294.44
2023-05-10T09:15:09.823Z,101299.09
2023-05-10T09:17:39.569Z,101295.50
2023-05-10T09:20:10.180Z,101294.06
2023-05-10T09:22:38.958Z,101293.78
2023-05-10T09:25:12.029Z,101294.75
2023-05-10T09:27:41.708Z,101290.31
2023-05-10T09:30:11.684Z,101293.59
2023-05-10T09:32:41.545Z,101289.03
2023-05-10T09:35:12.720Z,101289.69
2023-05-10T09:37:43.142Z,101281.34
2023-05-10T09:40:15.362Z,101259.84
2023-05-10T09:42:45.066Z,101288.91
2023-05-10T09:45:13.464Z,101281.47
2023-05-10T09:47:42.009Z,101281.19
2023-05-10T09:50:12.554Z,101281.34
2023-05-10T09:52:50.229Z,101292.69
2023-05-10T09:55:19.062Z,101281.81
2023-05-10T09:57:48.488Z,101293.97
2023-05-10T10:00:21.311Z,101290.03
2023-05-10T10:02:56.364Z,101277.22
2023-05-10T10:05:32.760Z,101276.09
2023-05-10T10:08:02.136Z,101283.22
2023-05-10T10:10:31.075Z,101272.78
2023-05-10T10:12:59.840Z,101280.94
2023-05-10T10:15:28.882Z,101264.88
2023-05-10T10:17:57.157Z,101269.19
2023-05-10T10:20:26.299Z,101255.28
2023-05-10T10:22:56.630Z,101281.72
2023-05-10T10:25:25.390Z,101259.47
2023-05-10T10:28:08.344Z,101269.34
2023-05-10T10:30:43.549Z,101270.78
2023-05-10T10:33:53.894Z,101257.03
2023-05-10T10:36:28.142Z,101270.63
2023-05-10T10:39:05.768Z,101267.31
2023-05-10T10:41:36.082Z,101257.28
2023-05-10T10:44:36.035Z,101264.13
2023-05-10T10:47:09.505Z,101257.09
2023-05-10T10:49:50.557Z,101263.34
2023-05-10T10:52:25.072Z,101272.53
2023-05-10T10:55:06.548Z,101254.50
2023-05-10T10:57:36.228Z,101263.03
2023-05-10T11:00:38.256Z,101256.00
2023-05-10T11:03:08.533Z,101241.44
2023-05-10T11:05:47.474Z,101242.47
2023-05-10T11:08:18.397Z,101241.97
2023-05-10T11:11:09.499Z,101247.06
2023-05-10T11:13:41.304Z,101255.34
2023-05-10T11:16:18.479Z,101241.03
2023-05-10T11:19:06.120Z,101240.34
2023-05-10T11:21:36.228Z,101237.03
2023-05-10T11:24:07.240Z,101239.47
2023-05-10T11:26:38.425Z,101229.38
2023-05-10T11:29:06.859Z,101240.09
2023-05-10T11:31:35.741Z,101248.06
2023-05-10T11:34:04.328Z,101239.47
2023-05-10T11:36:35.855Z,101236.72
2023-05-10T11:39:08.467Z,101237.84
2023-05-10T11:41:38.103Z,101232.59
2023-05-10T11:44:07.081Z,101226.53
2023-05-10T11:46:35.485Z,101236.72
2023-05-10T11:49:05.756Z,101210.50
2023-05-10T11:51:40.495Z,101229.38
2023-05-10T11:54:10.562Z,101185.16
2023-05-10T11:56:40.688Z,101200.63
2023-05-10T11:59:09.486Z,101230.38
2023-05-10T12:01:38.374Z,101207.75
2023-05-10T12:04:08.048Z,101223.13
2023-05-10T12:06:43.971Z,101235.28
2023-05-10T12:09:12.406Z,101238.44
2023-05-10T12:11:44.166Z,101233.19
2023-05-10T12:14:13.256Z,101228.63
2023-05-10T12:16:41.602Z,101216.53
2023-05-10T12:19:10.236Z,101221.25
2023-05-10T12:21:40.151Z,101231.28
2023-05-10T12:24:09.786Z,101224.84
2023-05-10T12:26:38.901Z,101234.41
2023-05-10T12:29:19.520Z,101231.31
2023-05-10T12:31:55.660Z,101226.44
2023-05-10T12:34:39.345Z,101224.13
2023-05-10T12:37:07.421Z,101189.34
2023-05-10T12:39:43.116Z,101220.19
2023-05-10T12:42:12.293Z,101209.75
2023-05-10T12:44:42.423Z,101216.53
2023-05-10T12:47:11.941Z,101216.69
2023-05-10T12:49:40.521Z,101195.25
2023-05-10T12:52:11.125Z,101202.63
2023-05-10T12:54:39.394Z,101213.25
2023-05-10T12:57:07.543Z,101212.38
2023-05-10T12:59:37.948Z,101192.81
2023-05-10T13:02:08.969Z,101208.34
2023-05-10T13:04:38.652Z,101212.38
2023-05-10T13:07:07.459Z,101199.66
2023-05-10T13:09:35.864Z,101208.19
2023-05-10T13:12:10.014Z,101211.75
2023-05-10T13:14:38.795Z,101203.06
2023-05-10T13:17:08.931Z,101208.19
2023-05-10T13:19:37.495Z,101208.00
2023-05-10T13:22:05.905Z,101213.41
2023-05-10T13:24:34.738Z,101208.88
2023-05-10T13:27:05.850Z,101217.38
2023-05-10T13:29:34.284Z,101204.56
2023-05-10T13:32:03.369Z,101208.03
2023-05-10T13:34:33.440Z,101215.13
2023-05-10T13:37:04.005Z,101210.78
2023-05-10T13:39:35.502Z,101209.06
2023-05-10T13:42:06.895Z,101183.66
2023-05-10T13:44:35.309Z,101217.13
2023-05-10T13:47:03.702Z,101199.16
2023-05-10T13:49:33.742Z,101215.13
2023-05-10T13:52:07.057Z,101197.16
2023-05-10T13:54:38.229Z,101204.78
2023-05-10T13:57:07.697Z,101186.31
2023-05-10T13:59:36.058Z,101203.13
2023-05-10T14:02:05.328Z,101193.59
2023-05-10T14:04:37.999Z,101188.22
2023-05-10T14:07:06.423Z,101198.81
2023-05-10T14:09:37.824Z,101198.22
2023-05-10T14:12:07.245Z,101194.63
2023-05-10T14:14:37.811Z,101198.44
2023-05-10T14:17:10.722Z,101193.22
2023-05-10T14:19:42.776Z,101173.63
2023-05-10T14:22:11.127Z,101182.28
2023-05-10T14:24:41.356Z,101193.50
2023-05-10T14:27:11.154Z,101186.53
2023-05-10T14:29:40.188Z,101165.81
2023-05-10T14:32:08.879Z,101151.66
2023-05-10T14:34:41.978Z,101174.50
2023-05-10T14:37:13.036Z,101175.88
2023-05-10T14:39:41.636Z,101162.34
2023-05-10T14:42:10.129Z,101181.81
2023-05-10T14:44:38.615Z,101157.13
2023-05-10T14:47:07.478Z,101168.41
2023-05-10T14:49:39.756Z,101182.47
2023-05-10T14:52:09.631Z,101173.59
2023-05-10T14:54:40.696Z,101170.63
2023-05-10T14:57:12.659Z,101191.00
2023-05-10T14:59:41.481Z,101196.53
2023-05-10T15:02:11.516Z,101182.63
2023-05-10T15:04:40.188Z,101185.59
2023-05-10T15:07:10.379Z,101186.81
2023-05-10T15:09:38.741Z,101196.88
2023-05-10T15:12:07.215Z,101204.63
2023-05-10T15:14:37.446Z,101202.38
2023-05-10T15:17:05.606Z,101201.09
2023-05-10T15:19:34.584Z,101198.81
2023-05-10T15:22:02.925Z,101202.28
2023-05-10T15:24:33.275Z,101200.94
2023-05-10T15:27:02.551Z,101214.53
2023-05-10T15:29:35.453Z,101179.47
2023-05-10T15:32:04.954Z,101206.44
2023-05-10T15:34:35.127Z,101208.84
2023-05-10T15:37:05.312Z,101188.16
2023-05-10T15:39:35.085Z,101180.75
2023-05-10T15:42:04.280Z,101216.59
2023-05-10T15:44:36.399Z,101212.47
2023-05-10T15:47:05.459Z,101210.03
2023-05-10T15:49:33.809Z,101203.00
2023-05-10T15:52:06.721Z,101207.56
2023-05-10T15:54:36.896Z,101217.44
2023-05-10T15:57:05.254Z,101217.59
2023-05-10T15:59:35.965Z,101205.78
2023-05-10T16:02:05.037Z,101194.19
2023-05-10T16:04:36.080Z,101204.50
2023-05-10T16:07:04.551Z,101198.34
2023-05-10T16:09:33.548Z,101210.50
2023-05-10T16:12:05.278Z,101213.16
2023-05-10T16:14:36.429Z,101208.84
2023-05-10T16:17:05.448Z,101222.19
2023-05-10T16:19:36.747Z,101213.69
2023-05-10T16:22:05.633Z,101221.91
2023-05-10T16:24:37.641Z,101238.50
2023-05-10T16:27:07.505Z,101194.84
2023-05-10T16:29:35.774Z,101248.97
2023-05-10T16:32:07.338Z,101216.50
2023-05-10T16:34:35.816Z,101247.66
2023-05-10T16:37:06.762Z,101245.88
2023-05-10T16:39:38.352Z,101258.53
2023-05-10T16:42:08.371Z,101238.84
2023-05-10T16:44:36.505Z,101223.09
2023-05-10T16:47:07.833Z,101257.88
2023-05-10T16:49:37.432Z,101251.72
2023-05-10T16:52:09.041Z,101262.78
2023-05-10T16:54:37.231Z,101202.88
2023-05-10T16:57:10.023Z,101258.19
2023-05-10T16:59:38.416Z,101250.13
2023-05-10T17:02:06.770Z,101259.47
2023-05-10T17:04:35.245Z,101269.91
2023-05-10T17:07:03.799Z,101254.09
2023-05-10T17:09:36.307Z,101260.69
2023-05-10T17:12:05.152Z,101268.72
2023-05-10T17:14:38.270Z,101264.44
2023-05-10T17:17:09.389Z,101254.13
2023-05-10T17:19:37.663Z,101268.50
2023-05-10T17:22:08.401Z,101279.81
2023-05-10T17:24:36.785Z,101276.75
2023-05-10T17:27:05.813Z,101270.22
2023-05-10T17:29:35.534Z,101258.91
2023-05-10T17:32:04.377Z,101290.03
2023-05-10T17:34:32.786Z,101296.78
2023-05-10T17:39:54.085Z,101295.97
2023-05-10T17:42:22.325Z,101292.38
2023-05-10T17:44:52.020Z,101301.25
2023-05-10T17:47:20.956Z,101308.97
2023-05-10T17:49:50.233Z,101286.00
2023-05-10T17:52:21.543Z,101311.09
2023-05-10T17:54:49.829Z,101271.66
2023-05-10T17:57:18.653Z,101281.25
2023-05-10T17:59:54.014Z,101312.88
2023-05-10T18:02:23.707Z,101320.13
2023-05-10T18:04:52.031Z,101316.53
2023-05-10T18:07:24.000Z,101320.78
2023-05-10T18:09:52.549Z,101324.16
2023-05-10T18:12:21.008Z,101315.09
2023-05-10T18:14:49.232Z,101336.47
2023-05-10T18:17:20.497Z,101336.88
2023-05-10T18:19:49.404Z,101342.25
2023-05-10T18:22:17.754Z,101337.06
2023-05-10T18:24:47.157Z,101343.25
2023-05-10T18:27:15.604Z,101346.00
2023-05-10T18:29:43.865Z,101351.34
2023-05-10T18:32:12.729Z,101314.72
2023-05-10T18:34:42.487Z,101341.16
2023-05-10T18:37:13.912Z,101340.66
2023-05-10T18:39:43.009Z,101328.84
2023-05-10T18:42:11.310Z,101344.53
2023-05-10T18:44:39.831Z,101334.00
2023-05-10T18:47:08.418Z,101357.59
2023-05-10T18:49:36.753Z,101353.84
2023-05-10T18:52:06.543Z,101358.50
2023-05-10T18:54:38.181Z,101330.66
2023-05-10T18:57:06.457Z,101321.94
2023-05-10T18:59:35.242Z,101363.88
2023-05-10T19:02:06.605Z,101379.63
2023-05-10T19:04:35.111Z,101369.91
2023-05-10T19:07:08.104Z,101364.78
2023-05-10T19:09:36.803Z,101369.09
2023-05-10T19:12:05.178Z,101383.38
2023-05-10T19:14:36.410Z,101381.63
2023-05-10T19:17:06.292Z,101366.91
2023-05-10T19:19:36.703Z,101380.59
2023-05-10T19:22:05.124Z,101386.59
2023-05-10T19:24:36.392Z,101356.22
2023-05-10T19:27:06.821Z,101397.56
2023-05-10T19:29:35.301Z,101395.69
2023-05-10T19:32:05.964Z,101347.81
2023-05-10T19:34:34.456Z,101396.94
2023-05-10T19:37:05.047Z,101412.00
2023-05-10T19:39:37.378Z,101399.88
2023-05-10T19:42:09.793Z,101395.78
2023-05-10T19:44:38.262Z,101392.38
2023-05-10T19:47:08.008Z,101387.72
2023-05-10T19:49:37.620Z,101409.13
2023-05-10T19:52:08.044Z,101376.25
2023-05-10T19:54:38.655Z,101415.84
2023-05-10T19:57:07.003Z,101404.59
2023-05-10T19:59:35.608Z,101396.84
2023-05-10T20:02:06.062Z,101404.47
2023-05-10T20:04:36.354Z,101408.88
2023-05-10T20:07:04.999Z,101414.75
2023-05-10T20:09:34.808Z,101413.22
2023-05-10T20:12:06.605Z,101393.38
2023-05-10T20:14:35.137Z,101406.72
2023-05-10T20:17:03.385Z,101419.03
2023-05-10T20:19:33.718Z,101410.09
2023-05-10T20:22:02.789Z,101420.81
2023-05-10T20:24:31.355Z,101424.44
2023-05-10T20:27:00.912Z,101424.53
2023-05-10T20:29:32.623Z,101421.88
2023-05-10T20:32:03.315Z,101417.84
2023-05-10T20:34:34.564Z,101425.03
2023-05-10T20:37:03.169Z,101411.22
2023-05-10T20:39:31.305Z,101416.56
2023-05-10T20:42:00.382Z,101429.28
2023-05-10T20:44:28.745Z,101406.25
2023-05-10T20:47:08.270Z,101416.44
2023-05-10T20:49:38.613Z,101413.06
2023-05-10T20:52:09.884Z,101415.78
2023-05-10T20:54:41.291Z,101411.31
2023-05-10T20:57:13.151Z,101420.72
2023-05-10T20:59:41.767Z,101414.06
2023-05-10T21:02:11.355Z,101426.47
2023-05-10T21:04:40.967Z,101422.97
2023-05-10T21:07:09.445Z,101424.81
2023-05-10T21:09:37.670Z,101423.28
2023-05-10T21:12:06.222Z,101424.31
2023-05-10T21:14:35.299Z,101428.69
2023-05-10T21:17:03.577Z,101402.56
2023-05-10T21:19:33.993Z,101412.63
2023-05-10T21:22:03.613Z,101431.09
2023-05-10T21:24:35.227Z,101424.09
2023-05-10T21:27:03.795Z,101425.91
2023-05-10T21:29:32.492Z,101425.91
2023-05-10T21:32:01.508Z,101427.84
2023-05-10T21:34:32.049Z,101429.53
2023-05-10T21:37:02.791Z,101422.81
2023-05-10T21:39:31.400Z,101432.38
2023-05-10T21:42:02.984Z,101424.59
2023-05-10T21:44:31.880Z,101435.00
2023-05-10T21:47:02.597Z,101428.78
2023-05-10T21:49:30.895Z,101425.19
2023-05-10T21:51:59.709Z,101428.59
2023-05-10T21:54:31.670Z,101423.59
2023-05-10T21:57:00.012Z,101422.78
2023-05-10T21:59:28.266Z,101422.38
2023-05-10T22:01:56.413Z,101419.13
2023-05-10T22:04:24.758Z,101426.28
2023-05-10T22:06:55.085Z,101422.69
2023-05-10T22:09:24.613Z,101420.88
2023-05-10T22:11:54.796Z,101420.28
2023-05-10T22:14:24.440Z,101426.13
2023-05-10T22:16:52.690Z,101410.53
2023-05-10T22:19:21.400Z,101419.59
2023-05-10T22:21:49.648Z,101426.59
2023-05-10T22:24:17.860Z,101425.94
2023-05-10T22:26:46.175Z,101423.16
2023-05-10T22:29:18.298Z,101414.38
2023-05-10T22:31:46.587Z,101428.09
2023-05-10T22:34:15.359Z,101426.19
2023-05-10T22:36:44.673Z,101426.09
2023-05-10T22:39:13.758Z,101405.81
2023-05-10T22:41:42.233Z,101407.72
2023-05-10T22:44:10.344Z,101428.72
2023-05-10T22:46:40.142Z,101427.06
2023-05-10T22:49:08.399Z,101434.28
2023-05-10T22:51:39.337Z,101428.00
2023-05-10T22:54:08.427Z,101408.50
2023-05-10T22:56:37.262Z,101435.22
2023-05-10T22:59:06.027Z,101428.09
2023-05-10T23:01:35.254Z,101403.72
2023-05-10T23:04:05.252Z,101421.16
2023-05-10T23:06:34.012Z,101419.19
2023-05-10T23:09:02.649Z,101422.75
2023-05-10T23:11:31.109Z,101432.44
2023-05-10T23:14:01.201Z,101427.31
2023-05-10T23:16:29.821Z,101421.41
2023-05-10T23:19:04.307Z,101445.13
2023-05-10T23:21:34.675Z,101423.81
2023-05-10T23:24:02.940Z,101428.44
2023-05-10T23:26:31.274Z,101419.03
2023-05-10T23:29:02.874Z,101428.56
2023-05-10T23:31:31.936Z,101429.41
2023-05-10T23:34:00.408Z,101433.75
2023-05-10T23:36:28.753Z,101431.06
2023-05-10T23:38:58.702Z,101420.56
2023-05-10T23:41:26.798Z,101432.00
2023-05-10T23:43:55.694Z,101429.69
2023-05-10T23:46:24.157Z,101424.50
2023-05-10T23:48:52.435Z,101424.50
2023-05-10T23:51:21.391Z,101422.53
2023-05-10T23:53:49.721Z,101387.44
2023-05-10T23:56:19.799Z,101425.38
2023-05-10T23:58:51.314Z,101422.81
